createdAt,value
2023-01-21T00:00:09.835Z,16.27
2023-01-21T00:05:11.437Z,18.03
2023-01-21T00:10:13.079Z,16.83
2023-01-21T00:15:15.121Z,18.33
2023-01-21T00:20:17.265Z,20.20
2023-01-21T00:25:18.993Z,21.00
2023-01-21T00:30:20.638Z,18.83
2023-01-21T00:35:22.248Z,20.83
2023-01-21T00:40:24.189Z,15.70
2023-01-21T00:45:25.844Z,18.90
2023-01-21T00:50:27.440Z,16.60
2023-01-21T00:55:29.032Z,15.45
2023-01-21T01:00:31.012Z,15.35
2023-01-21T01:05:33.183Z,16.90
2023-01-21T01:10:37.371Z,16.83
2023-01-21T01:15:39.030Z,17.77
2023-01-21T01:20:44.438Z,16.27
2023-01-21T01:25:57.188Z,16.45
2023-01-21T01:30:59.798Z,17.95
2023-01-21T01:36:03.345Z,18.30
2023-01-21T01:41:05.275Z,17.00
2023-01-21T01:46:06.977Z,20.10
2023-01-21T01:51:09.596Z,18.02
2023-01-21T01:56:12.143Z,17.73
2023-01-21T02:01:13.908Z,16.58
2023-01-21T02:06:18.325Z,18.53
2023-01-21T02:11:20.674Z,19.10
2023-01-21T02:16:40.980Z,21.65
2023-01-21T02:21:58.126Z,21.13
2023-01-21T02:27:18.552Z,20.60
2023-01-21T02:32:50.929Z,23.17
2023-01-21T02:37:58.185Z,23.75
2023-01-21T02:43:09.454Z,22.60
2023-01-21T02:48:16.856Z,22.10
2023-01-21T02:53:39.023Z,23.00
2023-01-21T02:58:46.096Z,21.57
2023-01-21T03:03:54.473Z,22.00
2023-01-21T03:09:03.689Z,18.30
2023-01-21T03:14:33.056Z,17.67
2023-01-21T03:19:45.073Z,18.85
2023-01-21T03:24:51.786Z,18.43
2023-01-21T03:29:58.263Z,16.05
2023-01-21T03:35:03.961Z,14.20
2023-01-21T03:40:19.282Z,16.10
2023-01-21T03:45:30.925Z,17.50
2023-01-21T03:50:41.056Z,14.50
2023-01-21T03:55:42.648Z,14.00
2023-01-21T04:00:46.239Z,13.20
2023-01-21T04:05:47.984Z,15.30
2023-01-21T04:10:49.593Z,15.00
2023-01-21T04:15:51.183Z,14.63
2023-01-21T04:20:52.975Z,14.73
2023-01-21T04:25:54.672Z,17.35
2023-01-21T04:30:56.311Z,15.90
2023-01-21T04:35:59.650Z,16.23
2023-01-21T04:41:01.284Z,17.10
2023-01-21T04:46:03.038Z,18.35
2023-01-21T04:51:06.529Z,16.25
2023-01-21T04:56:08.378Z,15.15
2023-01-21T05:01:10.061Z,13.75
2023-01-21T05:06:11.741Z,14.15
2023-01-21T05:11:16.567Z,14.50
2023-01-21T05:16:18.194Z,13.87
2023-01-21T05:21:19.839Z,13.48
2023-01-21T05:26:21.578Z,11.93
2023-01-21T05:31:23.274Z,15.70
2023-01-21T05:36:25.057Z,19.73
2023-01-21T05:41:26.725Z,19.38
2023-01-21T05:46:28.437Z,17.95
2023-01-21T05:51:30.059Z,15.88
2023-01-21T05:56:31.695Z,17.77
2023-01-21T06:01:33.352Z,17.20
2023-01-21T06:06:35.067Z,16.95
2023-01-21T06:11:36.714Z,19.45
2023-01-21T06:16:38.307Z,18.33
2023-01-21T06:21:40.146Z,16.63
2023-01-21T06:26:41.792Z,18.08
2023-01-21T06:31:43.472Z,19.63
2023-01-21T06:36:45.111Z,18.43
2023-01-21T06:41:46.745Z,19.83
2023-01-21T06:47:00.069Z,19.98
2023-01-21T06:52:02.464Z,20.50
2023-01-21T06:57:04.091Z,19.92
2023-01-21T07:02:06.741Z,20.58
2023-01-21T07:07:08.361Z,19.55
2023-01-21T07:12:10.221Z,18.00
2023-01-21T07:17:11.890Z,16.88
2023-01-21T07:22:13.504Z,16.97
2023-01-21T07:27:15.175Z,17.42
2023-01-21T07:32:16.912Z,14.53
2023-01-21T07:37:18.527Z,15.40
2023-01-21T07:42:20.183Z,15.73
2023-01-21T07:47:23.184Z,16.08
2023-01-21T07:52:24.922Z,14.60
2023-01-21T07:57:26.518Z,14.32
2023-01-21T08:02:28.272Z,16.77
2023-01-21T08:07:29.939Z,16.83
2023-01-21T08:12:31.553Z,14.60
2023-01-21T08:17:33.421Z,15.57
2023-01-21T08:22:35.463Z,18.37
2023-01-21T08:27:37.103Z,14.57
2023-01-21T08:32:38.756Z,15.73
2023-01-21T08:37:40.493Z,15.63
2023-01-21T08:42:42.122Z,15.95
2023-01-21T08:47:43.960Z,16.52
2023-01-21T08:52:55.738Z,17.08
2023-01-21T08:57:58.508Z,17.60
2023-01-21T09:03:00.365Z,16.45
2023-01-21T09:08:02.001Z,16.75
2023-01-21T09:13:10.388Z,17.50
2023-01-21T09:18:12.457Z,18.58
2023-01-21T09:23:26.773Z,18.20
2023-01-21T09:28:28.424Z,17.67
2023-01-21T09:33:31.743Z,17.33
2023-01-21T09:38:34.129Z,15.77
2023-01-21T09:43:41.739Z,14.57
2023-01-21T09:48:46.614Z,15.00
2023-01-21T09:53:52.380Z,14.23
2023-01-21T09:59:09.382Z,15.37
2023-01-21T10:04:48.151Z,15.05
2023-01-21T10:10:16.998Z,14.32
2023-01-21T10:15:24.628Z,15.10
2023-01-21T10:20:33.953Z,16.63
2023-01-21T10:25:37.517Z,16.63
2023-01-21T10:30:43.971Z,15.35
2023-01-21T10:36:05.232Z,15.60
2023-01-21T10:41:24.722Z,15.48
2023-01-21T10:46:39.421Z,14.35
2023-01-21T10:51:51.035Z,14.32
2023-01-21T10:57:40.165Z,15.07
2023-01-21T11:02:42.178Z,15.18
2023-01-21T11:07:44.514Z,15.18
2023-01-21T11:12:46.301Z,15.40
2023-01-21T11:17:51.927Z,15.05
2023-01-21T11:22:53.559Z,14.38
2023-01-21T11:27:55.203Z,15.32
2023-01-21T11:33:12.748Z,14.63
2023-01-21T11:38:34.089Z,14.55
2023-01-21T11:43:45.743Z,13.85
2023-01-21T11:48:48.606Z,13.38
2023-01-21T11:54:06.472Z,14.50
2023-01-21T11:59:24.296Z,15.43
2023-01-21T12:04:26.807Z,13.37
2023-01-21T12:09:29.231Z,15.30
2023-01-21T12:14:42.810Z,14.55
2023-01-21T12:20:05.960Z,13.45
2023-01-21T12:25:17.396Z,14.02
2023-01-21T12:30:19.149Z,14.73
2023-01-21T12:35:34.186Z,13.23
2023-01-21T12:41:00.563Z,12.93
2023-01-21T12:46:10.603Z,14.88
2023-01-21T12:51:22.087Z,13.35
2023-01-21T12:56:40.902Z,14.90
2023-01-21T13:01:55.757Z,12.63
2023-01-21T13:07:06.402Z,13.05
2023-01-21T13:12:25.792Z,12.68
2023-01-21T13:17:42.422Z,12.73
2023-01-21T13:23:08.165Z,12.32
2023-01-21T13:28:19.809Z,12.30
2023-01-21T13:33:25.064Z,12.07
2023-01-21T13:38:29.476Z,13.25
2023-01-21T13:44:00.960Z,15.10
2023-01-21T13:49:17.674Z,13.75
2023-01-21T13:55:05.625Z,13.48
2023-01-21T14:00:15.990Z,14.50
2023-01-21T14:05:41.684Z,14.68
2023-01-21T14:10:53.699Z,15.38
2023-01-21T14:16:17.359Z,15.70
2023-01-21T14:21:43.371Z,12.85
2023-01-21T14:27:08.069Z,14.57
2023-01-21T14:32:21.775Z,14.43
2023-01-21T14:37:35.065Z,13.15
2023-01-21T14:42:42.843Z,13.43
2023-01-21T14:47:49.679Z,19.45
2023-01-21T14:52:51.291Z,12.93
2023-01-21T14:57:54.736Z,11.23
2023-01-21T15:03:02.523Z,12.93
2023-01-21T15:08:12.778Z,12.10
2023-01-21T15:13:27.898Z,11.85
2023-01-21T15:18:41.465Z,11.27
2023-01-21T15:23:43.284Z,10.80
2023-01-21T15:28:55.926Z,11.18
2023-01-21T15:34:00.790Z,11.32
2023-01-21T15:39:24.184Z,10.45
2023-01-21T15:44:53.411Z,10.57
2023-01-21T15:50:05.585Z,12.07
2023-01-21T15:55:21.375Z,10.30
2023-01-21T16:00:32.946Z,10.50
2023-01-21T16:05:45.603Z,12.10
2023-01-21T16:11:02.300Z,10.85
2023-01-21T16:16:23.399Z,8.63
2023-01-21T16:21:40.295Z,8.50
2023-01-21T16:26:41.886Z,8.15
2023-01-21T16:32:00.738Z,8.25
2023-01-21T16:37:06.170Z,8.53
2023-01-21T16:42:22.705Z,7.73
2023-01-21T16:47:28.605Z,7.18
2023-01-21T16:52:30.662Z,5.78
2023-01-21T16:57:32.419Z,6.05
2023-01-21T17:02:34.364Z,6.07
2023-01-21T17:07:43.123Z,5.68
2023-01-21T17:13:05.992Z,6.32
2023-01-21T17:18:24.433Z,5.88
2023-01-21T17:23:30.232Z,6.13
2023-01-21T17:28:44.371Z,5.35
2023-01-21T17:33:59.743Z,5.90
2023-01-21T17:39:02.147Z,6.10
2023-01-21T17:44:07.191Z,5.38
2023-01-21T17:49:13.484Z,4.88
2023-01-21T17:54:21.557Z,4.38
2023-01-21T17:59:37.641Z,4.55
2023-01-21T18:04:39.828Z,5.22
2023-01-21T18:09:41.551Z,4.82
2023-01-21T18:14:43.415Z,4.93
2023-01-21T18:19:45.094Z,4.40
2023-01-21T18:24:46.754Z,4.50
2023-01-21T18:29:48.411Z,4.95
2023-01-21T18:34:50.149Z,4.95
2023-01-21T18:39:51.748Z,5.28
2023-01-21T18:44:53.356Z,4.43
2023-01-21T18:49:55.017Z,4.82
2023-01-21T18:54:58.180Z,3.97
2023-01-21T19:00:00.269Z,4.23
2023-01-21T19:05:01.916Z,4.13
2023-01-21T19:10:03.948Z,4.45
2023-01-21T19:15:08.102Z,4.07
2023-01-21T19:20:20.514Z,4.10
2023-01-21T19:25:25.168Z,3.65
2023-01-21T19:30:29.613Z,4.20
2023-01-21T19:35:35.660Z,4.90
2023-01-21T19:40:37.644Z,4.68
2023-01-21T19:45:39.265Z,4.40
2023-01-21T19:50:41.424Z,4.18
2023-01-21T19:55:45.512Z,4.63
2023-01-21T20:00:49.355Z,3.90
2023-01-21T20:05:59.299Z,4.70
2023-01-21T20:11:00.901Z,4.38
2023-01-21T20:16:14.226Z,5.32
2023-01-21T20:21:16.459Z,5.07
2023-01-21T20:26:24.515Z,5.43
2023-01-21T20:31:26.177Z,4.82
2023-01-21T20:36:28.159Z,5.28
2023-01-21T20:41:29.860Z,5.72
2023-01-21T20:46:31.675Z,5.22
2023-01-21T20:51:33.275Z,5.30
2023-01-21T20:56:35.124Z,5.57
2023-01-21T21:01:39.431Z,5.23
2023-01-21T21:06:41.055Z,5.68
2023-01-21T21:11:42.688Z,6.30
2023-01-21T21:16:44.405Z,5.95
2023-01-21T21:21:46.742Z,6.13
2023-01-21T21:26:48.356Z,7.27
2023-01-21T21:31:50.078Z,7.30
2023-01-21T21:36:51.783Z,6.47
2023-01-21T21:42:12.322Z,6.18
2023-01-21T21:47:33.588Z,5.55
2023-01-21T21:52:35.203Z,6.30
2023-01-21T21:57:36.819Z,6.03
2023-01-21T22:02:38.510Z,6.30
2023-01-21T22:07:40.216Z,6.30
2023-01-21T22:12:41.983Z,5.88
2023-01-21T22:17:43.625Z,5.68
2023-01-21T22:22:45.287Z,6.28
2023-01-21T22:27:46.909Z,5.90
2023-01-21T22:32:48.531Z,6.20
2023-01-21T22:37:50.228Z,6.57
2023-01-21T22:42:51.840Z,6.00
2023-01-21T22:47:53.437Z,6.65
2023-01-21T22:52:55.038Z,6.37
2023-01-21T22:57:56.638Z,5.90
2023-01-21T23:02:58.698Z,5.67
2023-01-21T23:13:06.998Z,5.82
2023-01-21T23:18:08.843Z,5.80
2023-01-21T23:23:12.199Z,5.77
2023-01-21T23:28:14.924Z,5.57
2023-01-21T23:33:16.508Z,5.55
2023-01-21T23:38:18.137Z,6.50
2023-01-21T23:43:24.170Z,6.63
2023-01-21T23:48:25.755Z,5.95
2023-01-21T23:53:27.351Z,6.73
2023-01-21T23:58:28.980Z,6.80
